Time;durP1;ratioP1;P1;durP2;ratioP2;P2;SDS_P1;SDS_P2;PMS_P1;PMS_P2;Temp;Humidity;BMP_temperature;BMP_pressure;BME280_temperature;BME280_humidity;BME280_pressure;Samples;Min_cycle;Max_cycle;Signal;HPM_P1;HPM_P2
2021/12/21 00:00:56;;;;;;;3.42;2.30;;;;;;;6.64;77.47;101970.63;4938940;28;20049;-84
2021/12/21 00:03:24;;;;;;;4.85;3.15;;;;;;;6.64;77.43;101972.56;4963291;28;20072;-83
2021/12/21 00:05:53;;;;;;;4.40;2.90;;;;;;;6.65;77.38;101980.50;4976562;28;20055;-84
2021/12/21 00:08:20;;;;;;;3.92;2.75;;;;;;;6.63;77.15;101973.66;4980489;28;20074;-84
2021/12/21 00:11:07;;;;;;;4.88;3.20;;;;;;;6.61;77.56;101968.44;4944971;28;20046;-84
2021/12/21 00:18:44;;;;;;;3.53;2.92;;;;;;;6.64;77.80;101956.03;4980732;28;20047;-83
2021/12/21 00:21:34;;;;;;;4.30;3.80;;;;;;;6.64;77.92;101953.28;4982102;28;20066;-84
2021/12/21 00:24:10;;;;;;;5.47;3.17;;;;;;;6.63;77.84;101938.72;4963978;28;20043;-84
2021/12/21 00:26:37;;;;;;;4.97;3.72;;;;;;;6.61;77.68;101948.38;4979183;28;20078;-83
2021/12/21 00:29:05;;;;;;;3.42;2.70;;;;;;;6.60;77.77;101936.53;4977506;28;20046;-84
2021/12/21 00:31:35;;;;;;;5.55;3.00;;;;;;;6.61;77.75;101937.34;4972918;28;20463;-83
2021/12/21 00:34:04;;;;;;;5.25;3.88;;;;;;;6.62;77.45;101933.47;4984338;28;20105;-85
2021/12/21 00:36:31;;;;;;;3.33;2.70;;;;;;;6.62;77.76;101942.56;4976102;28;20392;-84
2021/12/21 00:39:00;;;;;;;4.85;3.05;;;;;;;6.62;77.74;101936.22;4962967;28;20050;-84
2021/12/21 00:41:27;;;;;;;4.05;3.08;;;;;;;6.61;77.79;101938.19;4946470;28;20553;-84
2021/12/21 00:43:54;;;;;;;4.85;3.40;;;;;;;6.64;77.61;101934.84;4977201;28;20113;-84
2021/12/21 00:46:21;;;;;;;4.60;3.60;;;;;;;6.66;77.73;101937.31;4968099;28;20116;-83
2021/12/21 00:48:51;;;;;;;5.10;3.22;;;;;;;6.68;77.68;101930.41;4953378;28;20043;-81
2021/12/21 00:51:20;;;;;;;5.75;3.05;;;;;;;6.65;77.65;101933.72;4967643;28;20053;-84
2021/12/21 00:53:47;;;;;;;4.03;3.28;;;;;;;6.62;78.06;101937.06;4971498;28;20130;-81
2021/12/21 00:56:14;;;;;;;3.55;2.42;;;;;;;6.60;77.54;101928.28;4967517;28;20039;-82
2021/12/21 00:58:41;;;;;;;2.60;2.05;;;;;;;6.58;77.28;101929.69;4952935;28;20431;-82
2021/12/21 01:01:08;;;;;;;4.20;3.28;;;;;;;6.61;77.44;101918.94;4970472;28;20181;-82
2021/12/21 01:03:37;;;;;;;4.30;3.47;;;;;;;6.61;77.67;101916.19;4954160;28;20146;-82
2021/12/21 01:06:22;;;;;;;3.53;2.63;;;;;;;6.61;77.62;101907.91;4970598;28;20378;-81
2021/12/21 01:11:38;;;;;;;3.10;2.70;;;;;;;6.60;77.69;101906.25;4968780;28;20093;-82
2021/12/21 01:19:29;;;;;;;4.47;3.08;;;;;;;6.63;77.70;101910.38;4950627;29;20047;-82
2021/12/21 01:22:16;;;;;;;4.25;2.83;;;;;;;6.61;77.66;101905.16;4962744;28;20110;-82
2021/12/21 01:35:15;;;;;;;4.22;3.20;;;;;;;6.59;77.71;101890.06;4989289;28;20575;-82
2021/12/21 01:37:57;;;;;;;3.25;2.72;;;;;;;6.57;77.78;101890.34;4955389;28;20075;-82
2021/12/21 01:43:23;;;;;;;6.50;3.10;;;;;;;6.56;77.72;101891.47;4970981;28;20114;-82
2021/12/21 01:51:23;;;;;;;5.28;3.22;;;;;;;6.55;77.58;101898.06;4973025;28;20053;-82
2021/12/21 01:53:51;;;;;;;9.45;3.88;;;;;;;6.53;77.71;101889.28;4974142;28;20134;-82
2021/12/21 01:56:19;;;;;;;5.13;3.58;;;;;;;6.56;77.69;101893.38;4958149;28;20050;-82
2021/12/21 01:58:46;;;;;;;4.30;3.45;;;;;;;6.58;77.75;101883.72;4970248;28;20122;-82
2021/12/21 02:01:21;;;;;;;4.97;3.65;;;;;;;6.59;77.75;101884.56;4974187;28;20066;-82
2021/12/21 02:03:48;;;;;;;6.53;3.80;;;;;;;6.61;77.53;101882.31;4974099;28;20055;-83
2021/12/21 02:06:20;;;;;;;4.82;3.65;;;;;;;6.56;77.56;101883.22;4971539;28;20118;-82
2021/12/21 02:08:48;;;;;;;5.57;3.50;;;;;;;6.56;77.61;101888.72;4984836;28;20140;-82
2021/12/21 02:11:16;;;;;;;4.13;3.45;;;;;;;6.54;77.37;101885.41;4968607;28;20343;-82
2021/12/21 02:13:47;;;;;;;5.32;3.90;;;;;;;6.53;77.14;101888.47;4974314;28;20046;-82
2021/12/21 02:16:25;;;;;;;5.15;3.92;;;;;;;6.53;77.33;101888.47;4974226;28;20039;-82
2021/12/21 02:19:01;;;;;;;5.93;4.30;;;;;;;6.55;77.43;101884.31;4973177;28;20419;-82
2021/12/21 02:21:34;;;;;;;7.57;4.45;;;;;;;6.57;77.26;101886.75;4973187;28;20126;-81
2021/12/21 02:24:08;;;;;;;7.03;3.80;;;;;;;6.58;77.39;101869.97;4957717;28;20393;-81
2021/12/21 02:26:44;;;;;;;6.35;3.53;;;;;;;6.58;77.12;101869.97;4981706;28;20786;-82
2021/12/21 02:29:18;;;;;;;8.30;3.70;;;;;;;6.60;77.86;101866.91;4957416;28;20130;-82
2021/12/21 02:31:49;;;;;;;6.95;3.58;;;;;;;6.58;77.45;101864.47;4945701;29;20036;-82
2021/12/21 02:34:17;;;;;;;4.57;3.58;;;;;;;6.58;77.31;101880.97;4950547;28;20485;-81
2021/12/21 02:36:47;;;;;;;7.47;4.07;;;;;;;6.58;77.51;101867.22;4968519;28;20046;-82
2021/12/21 02:39:15;;;;;;;4.50;3.70;;;;;;;6.56;77.27;101865.88;4970225;28;20832;-82
2021/12/21 02:41:43;;;;;;;5.90;3.85;;;;;;;6.56;77.40;101869.44;4979200;28;20034;-82
2021/12/21 02:44:11;;;;;;;6.15;4.28;;;;;;;6.57;77.41;101867.50;4956749;28;20047;-82
2021/12/21 02:46:39;;;;;;;7.00;3.92;;;;;;;6.57;77.55;101870.25;4972699;28;20046;-82
2021/12/21 02:49:07;;;;;;;7.25;4.40;;;;;;;6.57;77.46;101873.00;4969978;28;20074;-82
2021/12/21 02:51:37;;;;;;;8.88;4.68;;;;;;;6.53;77.44;101872.78;4972567;28;20157;-82
2021/12/21 02:54:04;;;;;;;7.28;4.30;;;;;;;6.53;77.17;101874.72;4974313;28;20097;-82
2021/12/21 02:56:31;;;;;;;5.38;4.25;;;;;;;6.52;77.50;101860.13;4972707;28;20039;-81
2021/12/21 02:58:58;;;;;;;7.78;3.80;;;;;;;6.55;77.43;101865.06;4973550;28;20562;-81
2021/12/21 03:01:26;;;;;;;4.93;3.95;;;;;;;6.55;77.47;101859.53;4969294;28;20078;-82
2021/12/21 03:03:53;;;;;;;8.93;4.38;;;;;;;6.54;77.46;101852.41;4950912;29;20467;-82
2021/12/21 03:09:11;;;;;;;6.35;4.30;;;;;;;6.53;77.82;101866.44;4986047;28;20482;-81
2021/12/21 03:11:50;;;;;;;9.18;4.45;;;;;;;6.53;77.68;101869.22;4968112;28;20050;-82
2021/12/21 03:14:17;;;;;;;9.30;4.88;;;;;;;6.53;77.57;101872.78;4972900;28;20490;-81
2021/12/21 03:16:44;;;;;;;6.88;4.47;;;;;;;6.54;77.68;101873.59;4972968;28;20038;-82
2021/12/21 03:19:11;;;;;;;8.63;5.60;;;;;;;6.54;77.48;101868.09;4973352;28;20038;-82
2021/12/21 03:21:39;;;;;;;7.10;5.05;;;;;;;6.53;77.62;101859.03;4972632;28;20219;-81
2021/12/21 03:24:07;;;;;;;7.00;4.85;;;;;;;6.53;77.40;101853.53;4973917;28;20089;-82
2021/12/21 03:26:34;;;;;;;6.60;5.13;;;;;;;6.52;77.41;101854.63;4962802;28;20096;-84
2021/12/21 03:29:02;;;;;;;8.32;5.57;;;;;;;6.51;77.30;101852.97;4942464;28;20534;-82
2021/12/21 03:31:29;;;;;;;8.40;5.30;;;;;;;6.48;77.39;101858.25;4922540;29;20054;-82
2021/12/21 03:33:56;;;;;;;7.00;5.25;;;;;;;6.45;77.40;101853.34;4957192;28;20070;-81
2021/12/21 03:36:23;;;;;;;9.55;6.43;;;;;;;6.46;77.64;101850.28;4971638;28;20039;-82
2021/12/21 03:39:02;;;;;;;8.70;6.00;;;;;;;6.48;77.36;101845.31;4973703;28;20042;-81
2021/12/21 03:41:29;;;;;;;8.48;5.88;;;;;;;6.45;77.35;101842.31;4957664;28;20097;-82
2021/12/21 03:44:00;;;;;;;8.07;5.43;;;;;;;6.40;77.13;101842.38;4955540;28;20081;-82
2021/12/21 03:46:28;;;;;;;9.27;6.50;;;;;;;6.40;77.43;101836.88;4971504;28;20042;-81
2021/12/21 03:48:55;;;;;;;6.97;5.03;;;;;;;6.42;77.29;101835.47;4971136;28;20106;-82
2021/12/21 03:51:21;;;;;;;9.70;7.00;;;;;;;6.44;77.15;101841.50;4972630;28;20098;-82
2021/12/21 03:53:49;;;;;;;6.60;5.22;;;;;;;6.44;77.46;101837.94;4955618;28;20137;-82
2021/12/21 03:58:43;;;;;;;8.40;6.40;;;;;;;6.45;77.24;101834.06;4954311;28;20043;-82
2021/12/21 04:01:10;;;;;;;6.82;5.97;;;;;;;6.43;77.14;101828.06;4972069;28;20035;-81
2021/12/21 04:03:37;;;;;;;7.57;6.03;;;;;;;6.45;77.20;101836.81;4972874;28;20574;-82
2021/12/21 04:06:05;;;;;;;6.55;4.60;;;;;;;6.40;77.01;101837.72;4971161;28;20121;-82
2021/12/21 04:08:36;;;;;;;6.35;5.00;;;;;;;6.39;77.54;101833.31;4969442;28;20046;-82
2021/12/21 04:11:03;;;;;;;9.48;5.93;;;;;;;6.37;77.04;101830.03;4969051;28;20042;-82
2021/12/21 04:13:31;;;;;;;8.90;5.63;;;;;;;6.38;77.12;101831.66;4956442;28;20089;-82
2021/12/21 04:16:01;;;;;;;6.68;5.45;;;;;;;6.35;76.75;101829.50;4972296;28;20038;-81
2021/12/21 04:18:28;;;;;;;10.20;6.30;;;;;;;6.36;77.40;101819.31;4955082;28;20038;-82
2021/12/21 04:20:54;;;;;;;7.53;5.97;;;;;;;6.35;77.10;101818.50;4972644;28;20097;-82
2021/12/21 04:23:21;;;;;;;9.50;5.95;;;;;;;6.34;77.00;101814.09;4955054;28;20050;-82
2021/12/21 04:25:48;;;;;;;6.93;5.45;;;;;;;6.35;76.97;101798.44;4970096;28;20138;-82
2021/12/21 04:28:15;;;;;;;9.43;6.90;;;;;;;6.34;77.00;101802.28;4971024;28;20042;-82
2021/12/21 04:30:42;;;;;;;7.57;6.07;;;;;;;6.35;77.13;101803.94;4971283;28;20051;-82
2021/12/21 04:33:08;;;;;;;9.18;6.63;;;;;;;6.38;76.98;101793.16;4971306;28;20038;-82
2021/12/21 04:35:35;;;;;;;8.60;6.28;;;;;;;6.40;76.93;101793.69;4971210;28;20070;-82
2021/12/21 04:38:20;;;;;;;7.75;5.72;;;;;;;6.39;76.85;101791.22;4955365;28;20501;-82
2021/12/21 04:40:59;;;;;;;8.60;5.80;;;;;;;6.39;77.07;101793.97;4971237;28;20042;-82
2021/12/21 04:43:26;;;;;;;7.97;5.75;;;;;;;6.38;77.18;101787.66;4938895;28;20042;-82
2021/12/21 04:45:53;;;;;;;9.50;6.45;;;;;;;6.38;77.12;101779.41;4970914;28;20069;-82
2021/12/21 04:48:20;;;;;;;11.20;6.18;;;;;;;6.38;77.17;101786.84;4955665;28;20043;-82
2021/12/21 04:50:48;;;;;;;8.68;6.22;;;;;;;6.39;76.97;101782.97;4955024;28;20074;-82
2021/12/21 04:53:15;;;;;;;7.63;6.20;;;;;;;6.37;77.17;101782.44;4970855;28;20043;-83
2021/12/21 04:55:42;;;;;;;9.27;6.10;;;;;;;6.35;76.97;101781.94;4948115;29;20056;-82
2021/12/21 04:58:09;;;;;;;9.10;5.72;;;;;;;6.35;77.15;101776.44;4951970;29;20039;-82
2021/12/21 05:00:38;;;;;;;8.15;5.90;;;;;;;6.33;77.07;101782.19;4970183;28;20112;-82
2021/12/21 05:03:05;;;;;;;10.13;7.85;;;;;;;6.34;77.06;101772.84;4933001;29;20142;-82
2021/12/21 05:05:33;;;;;;;9.00;6.10;;;;;;;6.33;76.93;101778.66;4935308;29;20051;-82
2021/12/21 05:08:11;;;;;;;8.30;6.07;;;;;;;6.29;77.11;101772.09;4956176;28;20255;-82
2021/12/21 05:10:55;;;;;;;12.85;6.50;;;;;;;6.28;77.10;101765.75;4967358;28;20062;-82
2021/12/21 05:13:25;;;;;;;7.47;6.60;;;;;;;6.26;76.72;101765.25;4920285;29;20043;-82
2021/12/21 05:15:52;;;;;;;12.15;6.15;;;;;;;6.26;77.15;101756.16;4946398;29;20432;-82
2021/12/21 05:18:20;;;;;;;8.55;6.72;;;;;;;6.25;76.89;101760.03;4944906;29;20492;-82
2021/12/21 05:20:47;;;;;;;8.73;6.40;;;;;;;6.27;77.00;101750.41;4948069;29;20100;-82
2021/12/21 05:23:14;;;;;;;7.68;6.25;;;;;;;6.28;77.25;101762.19;4937105;29;20525;-83
2021/12/21 05:25:41;;;;;;;9.30;6.90;;;;;;;6.31;77.20;101747.84;4934621;28;20063;-82
2021/12/21 05:28:10;;;;;;;9.30;6.40;;;;;;;6.29;77.33;101744.59;4917458;29;20090;-82
2021/12/21 05:30:38;;;;;;;7.50;5.68;;;;;;;6.31;77.16;101747.84;4939634;28;20089;-82
2021/12/21 05:33:05;;;;;;;7.10;6.20;;;;;;;6.33;77.29;101751.16;4967164;28;20031;-83
2021/12/21 05:35:33;;;;;;;10.18;6.68;;;;;;;6.31;77.10;101747.84;4961721;28;20364;-82
2021/12/21 05:38:04;;;;;;;8.23;6.38;;;;;;;6.29;77.29;101744.59;4945726;29;20130;-82
2021/12/21 05:40:35;;;;;;;11.23;6.63;;;;;;;6.29;77.27;101748.16;4959685;28;20460;-81
2021/12/21 05:43:03;;;;;;;14.02;7.40;;;;;;;6.31;77.26;101739.59;4933054;29;20439;-82
2021/12/21 05:45:31;;;;;;;13.75;7.38;;;;;;;6.31;77.28;101742.34;4950860;29;20039;-83
2021/12/21 05:47:58;;;;;;;10.45;7.30;;;;;;;6.28;77.47;101730.00;4951660;29;20090;-82
2021/12/21 05:50:25;;;;;;;11.48;6.53;;;;;;;6.28;77.61;101727.25;4951612;29;20034;-82
2021/12/21 05:52:52;;;;;;;10.35;6.60;;;;;;;6.30;77.37;101721.50;4935552;29;20094;-81
2021/12/21 05:55:20;;;;;;;10.40;6.82;;;;;;;6.30;77.37;101725.03;4935492;29;20661;-82
2021/12/21 05:57:48;;;;;;;9.60;6.60;;;;;;;6.32;77.51;101733.84;4931902;29;20039;-82
2021/12/21 06:00:19;;;;;;;7.95;6.90;;;;;;;6.31;77.54;101721.19;4948391;29;20035;-82
2021/12/21 06:02:46;;;;;;;8.23;6.28;;;;;;;6.32;77.59;101728.34;4949994;29;20082;-81
2021/12/21 06:05:13;;;;;;;8.88;7.13;;;;;;;6.32;77.62;101728.34;4935114;29;20036;-82
2021/12/21 06:07:39;;;;;;;15.18;7.40;;;;;;;6.33;77.73;101715.41;4953983;28;20067;-82
2021/12/21 06:10:15;;;;;;;7.00;6.00;;;;;;;6.32;77.85;101720.09;4942115;28;20101;-82
2021/12/21 06:15:27;;;;;;;9.77;6.35;;;;;;;6.29;77.69;101728.09;4955609;29;20035;-82
2021/12/21 06:26:18;;;;;;;8.38;5.18;;;;;;;6.25;77.67;101719.59;4941064;28;20079;-83
2021/12/21 06:28:46;;;;;;;7.35;5.50;;;;;;;6.24;77.35;101719.91;4965702;28;20070;-82
2021/12/21 06:31:14;;;;;;;5.97;4.80;;;;;;;6.23;77.36;101719.06;4936466;29;20043;-82
2021/12/21 06:33:41;;;;;;;6.88;4.97;;;;;;;6.24;77.36;101726.22;4946435;29;20419;-82
2021/12/21 06:36:09;;;;;;;10.60;6.00;;;;;;;6.24;77.04;101731.72;4953181;29;20035;-82
2021/12/21 06:38:37;;;;;;;9.30;5.22;;;;;;;6.20;77.11;101730.66;4954433;29;20039;-83
2021/12/21 06:41:05;;;;;;;7.53;5.28;;;;;;;6.20;77.15;101733.41;4952708;29;20043;-83
2021/12/21 06:43:33;;;;;;;8.18;6.00;;;;;;;6.17;77.22;101736.72;4953396;29;20042;-82
2021/12/21 06:46:12;;;;;;;5.18;4.68;;;;;;;6.14;77.24;101726.34;4954897;29;20118;-82
2021/12/21 06:51:39;;;;;;;9.25;6.70;;;;;;;6.18;77.54;101727.38;4952522;29;20043;-82
2021/12/21 06:54:06;;;;;;;6.35;5.63;;;;;;;6.18;77.47;101721.06;4955274;29;20075;-82
2021/12/21 06:56:33;;;;;;;8.00;5.55;;;;;;;6.18;77.44;101727.38;4938383;29;20070;-82
2021/12/21 06:59:00;;;;;;;8.15;6.13;;;;;;;6.17;77.30;101747.72;4956063;29;20073;-83
2021/12/21 07:01:28;;;;;;;7.57;5.85;;;;;;;6.16;77.49;101740.59;4954159;28;20539;-82
2021/12/21 07:03:57;;;;;;;10.63;6.68;;;;;;;6.12;77.26;101740.38;4965679;28;20645;-82
2021/12/21 07:06:24;;;;;;;6.43;5.55;;;;;;;6.12;77.43;101734.88;4972114;28;20154;-82
2021/12/21 07:08:59;;;;;;;6.45;5.47;;;;;;;6.13;77.33;101731.03;4964949;28;20046;-83
2021/12/21 07:11:45;;;;;;;8.43;6.43;;;;;;;6.14;77.63;101732.63;4974029;28;20046;-82
2021/12/21 07:19:45;;;;;;;11.80;8.07;;;;;;;6.14;77.80;101727.13;4973942;28;20042;-82
2021/12/21 07:22:12;;;;;;;9.65;6.82;;;;;;;6.15;77.53;101727.97;4955160;28;20502;-82
2021/12/21 07:24:42;;;;;;;10.30;7.25;;;;;;;6.13;77.58;101741.19;4956794;28;20100;-82
2021/12/21 07:27:08;;;;;;;8.57;7.43;;;;;;;6.12;77.70;101739.53;4969547;28;20043;-82
2021/12/21 07:29:35;;;;;;;8.95;7.72;;;;;;;6.12;77.39;101739.53;4973911;28;20078;-82
2021/12/21 07:32:02;;;;;;;7.53;6.63;;;;;;;6.15;77.89;101749.97;4979420;28;20043;-82
2021/12/21 07:34:29;;;;;;;8.32;6.13;;;;;;;6.13;77.70;101742.00;4972010;28;20050;-82
2021/12/21 07:36:56;;;;;;;7.93;6.82;;;;;;;6.12;77.71;101745.88;4972678;28;20038;-83
2021/12/21 07:39:24;;;;;;;8.88;6.97;;;;;;;6.12;77.67;101745.03;4972648;28;20045;-82
2021/12/21 07:42:10;;;;;;;9.82;7.82;;;;;;;6.16;77.71;101750.78;4956063;28;20054;-82
2021/12/21 07:44:37;;;;;;;8.98;8.00;;;;;;;6.16;77.75;101748.84;4955693;28;20093;-82
2021/12/21 07:47:04;;;;;;;10.68;8.02;;;;;;;6.14;77.53;101746.38;4955378;28;20498;-82
2021/12/21 07:49:31;;;;;;;13.30;8.82;;;;;;;6.13;77.82;101743.94;4955484;28;20101;-82
2021/12/21 07:51:58;;;;;;;10.30;8.05;;;;;;;6.14;77.90;101742.84;4972157;28;20039;-82
2021/12/21 07:54:25;;;;;;;10.40;8.20;;;;;;;6.15;77.81;101749.97;4971807;28;20145;-82
2021/12/21 07:56:52;;;;;;;10.15;8.68;;;;;;;6.17;77.97;101764.22;4955400;28;20047;-83
2021/12/21 07:59:19;;;;;;;11.68;8.18;;;;;;;6.19;78.04;101762.03;4940359;28;20073;-82
2021/12/21 08:01:46;;;;;;;10.65;8.65;;;;;;;6.20;77.71;101769.16;4954696;28;20141;-82
2021/12/21 08:04:13;;;;;;;11.68;8.70;;;;;;;6.18;77.58;101771.38;4954640;28;20119;-83
2021/12/21 08:06:44;;;;;;;8.15;7.30;;;;;;;6.18;77.73;101776.06;4971370;28;20038;-82
2021/12/21 08:09:11;;;;;;;11.02;8.75;;;;;;;6.19;77.97;101774.94;4982201;28;20039;-83
2021/12/21 08:14:08;;;;;;;10.82;8.55;;;;;;;6.18;77.83;101765.88;4955857;28;20046;-82
2021/12/21 08:16:34;;;;;;;10.63;7.82;;;;;;;6.19;77.65;101773.03;4970523;28;20520;-82
2021/12/21 08:19:01;;;;;;;10.77;8.15;;;;;;;6.19;77.71;101770.28;4971043;28;20039;-83
2021/12/21 08:21:29;;;;;;;12.13;8.60;;;;;;;6.17;77.49;101766.97;4954607;28;20039;-84
2021/12/21 08:23:56;;;;;;;10.90;8.88;;;;;;;6.14;77.52;101775.84;4953200;28;20121;-83
2021/12/21 08:26:24;;;;;;;8.68;7.78;;;;;;;6.13;77.50;101783.25;4974801;28;20039;-84
2021/12/21 08:28:51;;;;;;;11.68;8.75;;;;;;;6.11;77.63;101776.41;4973778;28;20046;-84
2021/12/21 08:31:17;;;;;;;12.57;8.90;;;;;;;6.12;77.56;101778.84;4967797;28;20073;-84
2021/12/21 08:33:44;;;;;;;13.43;9.57;;;;;;;6.16;77.80;101784.59;4938215;28;20043;-83
2021/12/21 08:36:11;;;;;;;10.23;9.07;;;;;;;6.18;77.64;101784.31;4970114;28;20046;-84
2021/12/21 08:38:42;;;;;;;12.02;8.43;;;;;;;6.18;77.69;101787.88;4970388;28;20102;-83
2021/12/21 08:41:10;;;;;;;14.57;9.95;;;;;;;6.20;77.72;101782.06;4968875;28;20391;-83
2021/12/21 08:43:37;;;;;;;14.07;9.00;;;;;;;6.20;77.66;101785.66;4948892;28;20129;-83
2021/12/21 08:46:07;;;;;;;13.57;8.45;;;;;;;6.17;77.70;101777.97;4954015;28;20502;-84
2021/12/21 08:48:35;;;;;;;16.10;10.18;;;;;;;6.14;77.82;101782.13;4971568;28;20085;-83
2021/12/21 08:51:15;;;;;;;11.13;8.57;;;;;;;6.13;77.86;101785.19;4966549;28;20054;-83
2021/12/21 08:53:54;;;;;;;;;;;;;;;6.10;77.79;101769.25;4956859;28;20509;-82
2021/12/21 08:56:21;;;;;;;12.35;9.45;;;;;;;6.09;77.80;101776.69;4955744;28;20271;-83
2021/12/21 08:58:48;;;;;;;11.32;8.93;;;;;;;6.05;78.01;101766.56;4954823;28;20065;-83
2021/12/21 09:01:16;;;;;;;11.88;9.45;;;;;;;6.01;78.05;101765.53;4971137;28;20031;-82
2021/12/21 09:03:45;;;;;;;9.93;7.15;;;;;;;6.01;77.96;101777.31;4970820;28;20494;-83
2021/12/21 09:06:12;;;;;;;14.30;8.70;;;;;;;6.00;78.01;101775.69;4954237;28;20038;-82
2021/12/21 09:08:39;;;;;;;9.38;7.70;;;;;;;6.01;77.87;101771.00;4953624;28;20071;-82
2021/12/21 09:11:06;;;;;;;11.05;7.38;;;;;;;5.99;77.72;101768.53;4972271;28;20046;-83
2021/12/21 09:13:33;;;;;;;12.07;8.10;;;;;;;6.01;77.94;101782.81;4952393;28;20661;-82
2021/12/21 09:16:00;;;;;;;10.98;7.70;;;;;;;6.00;77.72;101781.19;4953834;28;20050;-82
2021/12/21 09:18:28;;;;;;;9.90;8.40;;;;;;;6.00;77.84;101780.34;4941411;29;20054;-83
2021/12/21 09:20:55;;;;;;;13.68;7.70;;;;;;;6.00;77.55;101777.63;4970686;28;20094;-83
2021/12/21 09:23:22;;;;;;;7.55;5.90;;;;;;;5.94;77.30;101765.00;4962389;28;20397;-83
2021/12/21 09:25:49;;;;;;;10.05;5.18;;;;;;;5.89;77.13;101767.81;4953011;28;20066;-83
2021/12/21 09:28:16;;;;;;;7.90;4.50;;;;;;;5.84;76.64;101781.56;4951133;28;20098;-82
2021/12/21 09:30:43;;;;;;;9.18;3.50;;;;;;;5.78;76.69;101771.72;4943542;28;20090;-83
2021/12/21 09:33:10;;;;;;;14.50;4.10;;;;;;;5.73;76.47;101783.59;4954217;28;20090;-82
2021/12/21 09:35:38;;;;;;;10.57;3.53;;;;;;;5.68;76.69;101772.66;4965691;28;20162;-83
2021/12/21 09:38:04;;;;;;;12.45;4.88;;;;;;;5.67;76.58;101776.50;4950157;28;20135;-83
2021/12/21 09:40:38;;;;;;;14.45;3.92;;;;;;;5.69;76.45;101771.53;4962224;28;20061;-83
2021/12/21 09:43:10;;;;;;;17.25;4.45;;;;;;;5.71;76.25;101765.75;4972396;28;20035;-84
2021/12/21 09:45:38;;;;;;;15.27;5.47;;;;;;;5.75;76.58;101766.81;4965193;28;20471;-82
2021/12/21 09:48:05;;;;;;;17.80;4.10;;;;;;;5.75;76.30;101772.28;4957448;28;20133;-83
2021/12/21 09:50:36;;;;;;;10.57;4.03;;;;;;;5.74;76.43;101773.44;4957541;28;20512;-85
2021/12/21 09:53:03;;;;;;;12.63;3.47;;;;;;;5.70;76.35;101770.41;4976469;28;20043;-84
2021/12/21 09:55:30;;;;;;;13.13;3.47;;;;;;;5.69;76.51;101777.03;4976807;28;20037;-82
2021/12/21 09:57:57;;;;;;;14.38;4.72;;;;;;;5.71;76.47;101776.75;4958923;28;20554;-85
2021/12/21 10:00:32;;;;;;;10.07;3.60;;;;;;;5.69;76.29;101774.28;4958007;28;20111;-83
2021/12/21 10:03:05;;;;;;;15.07;4.20;;;;;;;5.68;76.50;101774.56;4959286;28;20066;-83
2021/12/21 10:05:37;;;;;;;11.15;3.70;;;;;;;5.69;76.41;101782.53;4958583;28;20094;-83
2021/12/21 10:08:07;;;;;;;17.35;3.92;;;;;;;5.71;76.43;101779.50;4974524;28;20129;-84
2021/12/21 10:10:46;;;;;;;16.60;3.65;;;;;;;5.71;76.21;101782.25;4974494;28;20039;-85
2021/12/21 10:13:19;;;;;;;16.48;4.72;;;;;;;5.70;76.46;101791.56;4938832;29;20055;-82
2021/12/21 10:15:52;;;;;;;10.32;4.38;;;;;;;5.72;76.51;101792.13;4956065;29;20138;-83
2021/12/21 10:18:39;;;;;;;9.05;3.80;;;;;;;5.71;76.55;101787.72;4964822;28;20459;-83
2021/12/21 10:21:11;;;;;;;12.63;4.57;;;;;;;5.71;76.60;101794.06;4940743;28;20049;-83
2021/12/21 10:23:41;;;;;;;18.73;4.30;;;;;;;5.70;76.46;101791.56;4973500;28;20042;-82
2021/12/21 10:26:30;;;;;;;6.25;3.95;;;;;;;5.67;76.04;101789.41;4960068;28;20049;-83
2021/12/21 10:29:02;;;;;;;12.15;4.13;;;;;;;5.65;75.87;101788.88;4965084;28;20046;-82
2021/12/21 10:31:35;;;;;;;11.05;2.92;;;;;;;5.62;76.09;101797.69;4973743;28;20038;-83
2021/12/21 10:34:05;;;;;;;15.32;4.10;;;;;;;5.62;75.92;101790.25;4939910;28;20364;-82
2021/12/21 10:36:41;;;;;;;12.63;4.78;;;;;;;5.66;75.85;101785.84;4974801;28;20050;-83
2021/12/21 10:39:08;;;;;;;9.50;4.70;;;;;;;5.69;76.04;101789.97;4957520;28;20074;-83
2021/12/21 10:41:39;;;;;;;10.15;4.40;;;;;;;5.66;75.79;101785.03;4957007;28;20046;-82
2021/12/21 10:44:13;;;;;;;7.55;3.05;;;;;;;5.66;76.03;101785.03;4956001;28;20038;-82
2021/12/21 10:46:43;;;;;;;13.55;3.58;;;;;;;5.68;75.88;101788.31;4954817;28;20043;-82
2021/12/21 10:49:31;;;;;;;10.10;3.35;;;;;;;5.67;75.85;101775.66;4959455;28;20471;-81
2021/12/21 10:52:04;;;;;;;13.63;4.50;;;;;;;5.67;75.72;101770.16;4958033;28;20043;-83
2021/12/21 10:54:43;;;;;;;15.07;4.43;;;;;;;5.69;75.93;101784.47;4938244;28;20067;-83
2021/12/21 10:57:35;;;;;;;10.40;4.65;;;;;;;5.71;75.56;101771.25;4958304;28;20093;-80
2021/12/21 11:00:14;;;;;;;10.38;4.30;;;;;;;5.70;75.40;101775.09;4953514;28;20072;-80
2021/12/21 11:02:42;;;;;;;7.32;3.42;;;;;;;5.69;75.59;101767.97;4956507;28;20047;-85
2021/12/21 11:05:15;;;;;;;10.93;3.65;;;;;;;5.63;75.36;101764.44;4940734;28;20395;-82
2021/12/21 11:10:44;;;;;;;7.60;3.53;;;;;;;5.68;75.36;101752.59;4963516;28;20058;-83
2021/12/21 11:13:14;;;;;;;17.08;3.78;;;;;;;5.67;75.37;101748.19;4972852;28;20038;-83
2021/12/21 11:15:57;;;;;;;12.82;5.20;;;;;;;5.61;75.17;101755.69;4956194;28;20122;-83
2021/12/21 11:18:25;;;;;;;21.73;5.88;;;;;;;5.57;75.66;101753.78;4964460;28;20043;-83
2021/12/21 11:20:55;;;;;;;13.02;4.90;;;;;;;5.58;75.67;101760.91;4973090;28;20094;-83
2021/12/21 11:23:25;;;;;;;12.23;5.43;;;;;;;5.54;75.30;101764.22;4971351;28;20043;-82
2021/12/21 11:25:56;;;;;;;14.60;5.05;;;;;;;5.53;75.71;101754.34;4954229;28;20043;-83
2021/12/21 11:28:29;;;;;;;30.90;8.15;;;;;;;5.57;75.60;101748.28;4970626;28;20043;-83
2021/12/21 11:31:00;;;;;;;9.00;3.80;;;;;;;5.58;75.76;101749.94;4955683;28;20049;-84
2021/12/21 11:33:30;;;;;;;12.65;5.82;;;;;;;5.65;75.88;101744.91;4970544;28;20046;-83
2021/12/21 11:38:46;;;;;;;19.80;6.88;;;;;;;5.75;75.62;101736.56;4955744;28;20135;-82
2021/12/21 11:41:13;;;;;;;25.83;8.00;;;;;;;5.77;75.48;101728.88;4951062;28;20122;-82
2021/12/21 11:43:52;;;;;;;18.30;6.53;;;;;;;5.77;75.70;101731.63;4954842;28;20125;-83
2021/12/21 11:46:28;;;;;;;14.05;4.50;;;;;;;5.76;75.89;101727.25;4965389;28;20038;-82
2021/12/21 11:49:09;;;;;;;15.63;4.97;;;;;;;5.76;75.78;101719.00;4953962;28;20053;-82
2021/12/21 11:51:36;;;;;;;24.88;5.70;;;;;;;5.76;75.82;101708.00;4970008;28;20057;-83
2021/12/21 11:54:17;;;;;;;11.90;5.90;;;;;;;5.74;75.93;101705.56;4972434;28;20467;-84
2021/12/21 11:56:44;;;;;;;18.30;6.47;;;;;;;5.75;76.03;101704.44;4955586;28;20510;-83
2021/12/21 11:59:12;;;;;;;29.52;5.30;;;;;;;5.76;76.21;101708.84;4969720;28;20057;-83
2021/12/21 12:01:45;;;;;;;17.13;4.72;;;;;;;5.78;75.92;101705.78;4970236;28;20058;-84
2021/12/21 12:04:13;;;;;;;12.93;5.55;;;;;;;5.81;76.21;101694.22;4970577;28;20450;-84
2021/12/21 12:06:52;;;;;;;13.80;4.88;;;;;;;5.82;76.03;101690.38;4954782;28;20112;-83
2021/12/21 12:09:32;;;;;;;13.18;4.55;;;;;;;5.84;76.29;101699.97;4969721;28;20045;-82
2021/12/21 12:12:05;;;;;;;17.60;6.13;;;;;;;5.88;76.40;101695.53;4953249;28;20093;-83
2021/12/21 12:14:35;;;;;;;20.70;5.82;;;;;;;5.92;76.23;101701.28;4971969;28;20038;-87
2021/12/21 12:17:09;;;;;;;14.60;5.30;;;;;;;5.94;76.39;101704.56;4953533;28;20053;-84
2021/12/21 12:19:43;;;;;;;17.15;7.47;;;;;;;5.93;76.33;101692.72;4965865;28;20066;-84
2021/12/21 12:22:14;;;;;;;14.60;5.57;;;;;;;5.95;76.50;101685.03;4970924;28;20086;-83
2021/12/21 12:24:45;;;;;;;11.87;4.67;;;;;;;5.97;76.72;101674.56;4972233;28;20142;-83
2021/12/21 12:27:18;;;;;;;11.48;5.82;;;;;;;6.02;76.71;101673.69;4977527;28;20145;-82
2021/12/21 12:29:55;;;;;;;16.15;5.70;;;;;;;6.02;76.60;101662.69;4955176;28;20773;-82
2021/12/21 12:32:39;;;;;;;13.07;5.40;;;;;;;6.04;76.54;101665.94;4952982;28;20053;-83
2021/12/21 12:35:11;;;;;;;11.85;5.85;;;;;;;6.04;76.37;101654.97;4969976;28;20138;-83
2021/12/21 12:37:53;;;;;;;27.60;6.45;;;;;;;6.08;76.61;101656.84;4970381;28;20043;-83
2021/12/21 12:40:26;;;;;;;13.43;5.85;;;;;;;6.09;76.70;101649.41;4972712;28;20039;-84
2021/12/21 12:43:01;;;;;;;12.10;5.45;;;;;;;6.11;76.98;101633.44;4971193;28;20058;-83
2021/12/21 12:45:36;;;;;;;13.88;5.47;;;;;;;6.11;76.90;101639.78;4953601;28;20039;-83
2021/12/21 12:48:48;;;;;;;24.80;7.03;;;;;;;6.14;76.87;101630.91;4970658;28;20600;-84